sensor_id;sensor_type;location;lat;lon;timestamp;P1;durP1;ratioP1;P2;durP2;ratioP2
75890;SDS011;64571;47.512;19.054;2023-02-04T00:02:22;6.27;;;1.30;;
75890;SDS011;64571;47.512;19.054;2023-02-04T00:05:25;4.75;;;1.02;;
75890;SDS011;64571;47.512;19.054;2023-02-04T00:08:27;6.00;;;1.20;;
75890;SDS011;64571;47.512;19.054;2023-02-04T00:11:30;8.13;;;1.60;;
75890;SDS011;64571;47.512;19.054;2023-02-04T00:14:32;8.45;;;1.33;;
75890;SDS011;64571;47.512;19.054;2023-02-04T00:17:34;8.97;;;1.63;;
75890;SDS011;64571;47.512;19.054;2023-02-04T00:20:37;8.35;;;1.80;;
75890;SDS011;64571;47.512;19.054;2023-02-04T00:23:40;4.37;;;1.20;;
75890;SDS011;64571;47.512;19.054;2023-02-04T00:26:42;5.72;;;1.30;;
75890;SDS011;64571;47.512;19.054;2023-02-04T00:29:45;6.93;;;1.42;;
75890;SDS011;64571;47.512;19.054;2023-02-04T00:32:47;11.33;;;1.80;;
75890;SDS011;64571;47.512;19.054;2023-02-04T00:35:50;5.30;;;1.33;;
75890;SDS011;64571;47.512;19.054;2023-02-04T00:38:55;8.30;;;1.60;;
75890;SDS011;64571;47.512;19.054;2023-02-04T00:41:57;8.70;;;2.22;;
75890;SDS011;64571;47.512;19.054;2023-02-04T00:45:00;5.93;;;1.40;;
75890;SDS011;64571;47.512;19.054;2023-02-04T00:48:02;9.77;;;1.80;;
75890;SDS011;64571;47.512;19.054;2023-02-04T00:51:05;8.80;;;1.67;;
75890;SDS011;64571;47.512;19.054;2023-02-04T00:54:08;6.03;;;1.37;;
75890;SDS011;64571;47.512;19.054;2023-02-04T00:57:10;8.10;;;1.42;;
75890;SDS011;64571;47.512;19.054;2023-02-04T01:00:13;9.00;;;1.77;;
75890;SDS011;64571;47.512;19.054;2023-02-04T01:03:18;5.40;;;1.00;;
75890;SDS011;64571;47.512;19.054;2023-02-04T01:06:20;7.22;;;1.73;;
75890;SDS011;64571;47.512;19.054;2023-02-04T01:09:23;10.25;;;1.77;;
75890;SDS011;64571;47.512;19.054;2023-02-04T01:12:26;4.95;;;1.33;;
75890;SDS011;64571;47.512;19.054;2023-02-04T01:15:30;5.47;;;1.48;;
75890;SDS011;64571;47.512;19.054;2023-02-04T01:18:32;6.50;;;1.67;;
75890;SDS011;64571;47.512;19.054;2023-02-04T01:21:35;5.95;;;1.17;;
75890;SDS011;64571;47.512;19.054;2023-02-04T01:24:42;7.85;;;1.80;;
75890;SDS011;64571;47.512;19.054;2023-02-04T01:27:59;5.00;;;1.35;;
75890;SDS011;64571;47.512;19.054;2023-02-04T01:31:04;5.80;;;1.62;;
75890;SDS011;64571;47.512;19.054;2023-02-04T01:34:07;9.77;;;1.83;;
75890;SDS011;64571;47.512;19.054;2023-02-04T01:37:10;8.50;;;1.60;;
75890;SDS011;64571;47.512;19.054;2023-02-04T01:40:12;6.57;;;1.25;;
75890;SDS011;64571;47.512;19.054;2023-02-04T01:43:15;4.82;;;1.05;;
75890;SDS011;64571;47.512;19.054;2023-02-04T01:46:19;5.82;;;1.33;;
75890;SDS011;64571;47.512;19.054;2023-02-04T01:49:22;14.33;;;3.03;;
75890;SDS011;64571;47.512;19.054;2023-02-04T01:52:25;5.47;;;1.27;;
75890;SDS011;64571;47.512;19.054;2023-02-04T01:55:30;5.80;;;1.23;;
75890;SDS011;64571;47.512;19.054;2023-02-04T01:58:34;5.00;;;1.08;;
75890;SDS011;64571;47.512;19.054;2023-02-04T02:01:40;10.73;;;1.67;;
75890;SDS011;64571;47.512;19.054;2023-02-04T02:04:45;8.53;;;1.63;;
75890;SDS011;64571;47.512;19.054;2023-02-04T02:07:48;4.72;;;1.08;;
75890;SDS011;64571;47.512;19.054;2023-02-04T02:10:52;4.45;;;1.30;;
75890;SDS011;64571;47.512;19.054;2023-02-04T02:13:55;4.37;;;0.80;;
75890;SDS011;64571;47.512;19.054;2023-02-04T02:16:58;4.30;;;0.82;;
75890;SDS011;64571;47.512;19.054;2023-02-04T02:20:00;6.80;;;1.57;;
75890;SDS011;64571;47.512;19.054;2023-02-04T02:23:05;3.35;;;0.82;;
75890;SDS011;64571;47.512;19.054;2023-02-04T02:26:14;6.75;;;1.42;;
75890;SDS011;64571;47.512;19.054;2023-02-04T02:29:21;4.22;;;0.90;;
75890;SDS011;64571;47.512;19.054;2023-02-04T02:32:24;5.55;;;1.10;;
75890;SDS011;64571;47.512;19.054;2023-02-04T02:35:27;3.17;;;0.67;;
75890;SDS011;64571;47.512;19.054;2023-02-04T02:38:30;5.15;;;1.17;;
75890;SDS011;64571;47.512;19.054;2023-02-04T02:41:34;6.70;;;1.27;;
75890;SDS011;64571;47.512;19.054;2023-02-04T02:44:36;4.97;;;1.05;;
75890;SDS011;64571;47.512;19.054;2023-02-04T02:47:39;9.55;;;1.05;;
75890;SDS011;64571;47.512;19.054;2023-02-04T02:50:41;7.10;;;1.10;;
75890;SDS011;64571;47.512;19.054;2023-02-04T02:53:45;6.68;;;1.17;;
75890;SDS011;64571;47.512;19.054;2023-02-04T02:56:50;4.53;;;1.00;;
75890;SDS011;64571;47.512;19.054;2023-02-04T02:59:55;2.72;;;0.68;;
75890;SDS011;64571;47.512;19.054;2023-02-04T03:03:00;5.43;;;0.95;;
75890;SDS011;64571;47.512;19.054;2023-02-04T03:06:22;8.87;;;1.63;;
75890;SDS011;64571;47.512;19.054;2023-02-04T03:09:27;4.28;;;0.98;;
75890;SDS011;64571;47.512;19.054;2023-02-04T03:12:31;7.35;;;1.33;;
75890;SDS011;64571;47.512;19.054;2023-02-04T03:15:35;6.95;;;1.12;;
75890;SDS011;64571;47.512;19.054;2023-02-04T03:18:39;4.75;;;0.80;;
75890;SDS011;64571;47.512;19.054;2023-02-04T03:21:41;3.20;;;0.53;;
75890;SDS011;64571;47.512;19.054;2023-02-04T03:24:44;5.78;;;1.33;;
75890;SDS011;64571;47.512;19.054;2023-02-04T03:27:47;2.95;;;0.70;;
75890;SDS011;64571;47.512;19.054;2023-02-04T03:30:49;5.97;;;1.10;;
75890;SDS011;64571;47.512;19.054;2023-02-04T03:33:57;7.70;;;0.88;;
75890;SDS011;64571;47.512;19.054;2023-02-04T03:36:59;5.43;;;1.27;;
75890;SDS011;64571;47.512;19.054;2023-02-04T03:40:02;5.10;;;0.90;;
75890;SDS011;64571;47.512;19.054;2023-02-04T03:43:05;9.27;;;0.88;;
75890;SDS011;64571;47.512;19.054;2023-02-04T03:46:08;6.85;;;0.73;;
75890;SDS011;64571;47.512;19.054;2023-02-04T03:49:10;5.07;;;0.77;;
75890;SDS011;64571;47.512;19.054;2023-02-04T03:52:13;6.10;;;0.80;;
75890;SDS011;64571;47.512;19.054;2023-02-04T03:55:16;7.10;;;1.08;;
75890;SDS011;64571;47.512;19.054;2023-02-04T03:58:18;4.65;;;0.80;;
75890;SDS011;64571;47.512;19.054;2023-02-04T04:01:21;6.07;;;1.00;;
75890;SDS011;64571;47.512;19.054;2023-02-04T04:04:24;5.35;;;1.00;;
75890;SDS011;64571;47.512;19.054;2023-02-04T04:07:26;6.90;;;1.27;;
75890;SDS011;64571;47.512;19.054;2023-02-04T04:10:29;4.68;;;0.80;;
75890;SDS011;64571;47.512;19.054;2023-02-04T04:13:32;8.13;;;1.65;;
75890;SDS011;64571;47.512;19.054;2023-02-04T04:16:34;6.70;;;0.90;;
75890;SDS011;64571;47.512;19.054;2023-02-04T04:19:37;4.25;;;0.50;;
75890;SDS011;64571;47.512;19.054;2023-02-04T04:22:39;7.47;;;1.40;;
75890;SDS011;64571;47.512;19.054;2023-02-04T04:25:42;3.92;;;0.65;;
75890;SDS011;64571;47.512;19.054;2023-02-04T04:28:44;5.12;;;0.90;;
75890;SDS011;64571;47.512;19.054;2023-02-04T04:31:47;3.67;;;0.70;;
75890;SDS011;64571;47.512;19.054;2023-02-04T04:34:49;2.97;;;0.68;;
75890;SDS011;64571;47.512;19.054;2023-02-04T04:37:52;8.03;;;0.80;;
75890;SDS011;64571;47.512;19.054;2023-02-04T04:40:54;7.00;;;1.00;;
75890;SDS011;64571;47.512;19.054;2023-02-04T04:43:57;5.90;;;1.00;;
75890;SDS011;64571;47.512;19.054;2023-02-04T04:46:59;8.43;;;0.68;;
75890;SDS011;64571;47.512;19.054;2023-02-04T04:50:02;7.55;;;0.85;;
75890;SDS011;64571;47.512;19.054;2023-02-04T04:53:05;7.10;;;0.97;;
75890;SDS011;64571;47.512;19.054;2023-02-04T04:56:12;5.72;;;0.90;;
75890;SDS011;64571;47.512;19.054;2023-02-04T04:59:14;4.60;;;0.75;;
75890;SDS011;64571;47.512;19.054;2023-02-04T05:02:17;6.47;;;0.90;;
75890;SDS011;64571;47.512;19.054;2023-02-04T05:05:19;7.55;;;0.60;;
75890;SDS011;64571;47.512;19.054;2023-02-04T05:08:22;5.67;;;1.07;;
75890;SDS011;64571;47.512;19.054;2023-02-04T05:11:24;5.55;;;0.70;;
75890;SDS011;64571;47.512;19.054;2023-02-04T05:14:27;2.42;;;0.40;;
75890;SDS011;64571;47.512;19.054;2023-02-04T05:17:30;6.35;;;0.98;;
75890;SDS011;64571;47.512;19.054;2023-02-04T05:20:32;6.50;;;0.98;;
75890;SDS011;64571;47.512;19.054;2023-02-04T05:23:35;6.23;;;0.50;;
75890;SDS011;64571;47.512;19.054;2023-02-04T05:26:37;3.05;;;0.57;;
75890;SDS011;64571;47.512;19.054;2023-02-04T05:29:40;6.70;;;1.08;;
75890;SDS011;64571;47.512;19.054;2023-02-04T05:32:42;6.80;;;0.90;;
75890;SDS011;64571;47.512;19.054;2023-02-04T05:35:45;6.40;;;1.25;;
75890;SDS011;64571;47.512;19.054;2023-02-04T05:38:50;4.73;;;0.80;;
75890;SDS011;64571;47.512;19.054;2023-02-04T05:41:53;3.12;;;0.57;;
75890;SDS011;64571;47.512;19.054;2023-02-04T05:44:55;5.10;;;1.12;;
75890;SDS011;64571;47.512;19.054;2023-02-04T05:47:57;5.43;;;0.80;;
75890;SDS011;64571;47.512;19.054;2023-02-04T05:51:00;3.00;;;0.50;;
75890;SDS011;64571;47.512;19.054;2023-02-04T05:54:02;4.87;;;0.80;;
75890;SDS011;64571;47.512;19.054;2023-02-04T05:57:05;2.25;;;0.50;;
75890;SDS011;64571;47.512;19.054;2023-02-04T06:00:08;2.83;;;0.43;;
75890;SDS011;64571;47.512;19.054;2023-02-04T06:03:12;2.83;;;0.60;;
75890;SDS011;64571;47.512;19.054;2023-02-04T06:06:15;2.78;;;0.47;;
75890;SDS011;64571;47.512;19.054;2023-02-04T06:09:18;2.40;;;0.50;;
75890;SDS011;64571;47.512;19.054;2023-02-04T06:12:20;2.15;;;0.40;;
75890;SDS011;64571;47.512;19.054;2023-02-04T06:15:23;3.47;;;0.60;;
75890;SDS011;64571;47.512;19.054;2023-02-04T06:18:25;3.25;;;0.60;;
75890;SDS011;64571;47.512;19.054;2023-02-04T06:21:28;5.57;;;0.50;;
75890;SDS011;64571;47.512;19.054;2023-02-04T06:24:30;3.13;;;0.70;;
75890;SDS011;64571;47.512;19.054;2023-02-04T06:27:33;2.17;;;0.50;;
75890;SDS011;64571;47.512;19.054;2023-02-04T06:30:36;4.07;;;0.60;;
75890;SDS011;64571;47.512;19.054;2023-02-04T06:33:38;4.12;;;0.70;;
75890;SDS011;64571;47.512;19.054;2023-02-04T06:36:41;3.92;;;0.60;;
75890;SDS011;64571;47.512;19.054;2023-02-04T06:39:43;2.27;;;0.40;;
75890;SDS011;64571;47.512;19.054;2023-02-04T06:42:46;3.15;;;0.70;;
75890;SDS011;64571;47.512;19.054;2023-02-04T06:45:48;2.30;;;0.52;;
75890;SDS011;64571;47.512;19.054;2023-02-04T06:48:52;2.15;;;0.43;;
75890;SDS011;64571;47.512;19.054;2023-02-04T06:51:54;3.08;;;0.57;;
75890;SDS011;64571;47.512;19.054;2023-02-04T06:54:57;2.67;;;0.70;;
75890;SDS011;64571;47.512;19.054;2023-02-04T06:57:59;2.30;;;0.40;;
75890;SDS011;64571;47.512;19.054;2023-02-04T07:01:03;3.60;;;0.88;;
75890;SDS011;64571;47.512;19.054;2023-02-04T07:04:07;3.60;;;0.80;;
75890;SDS011;64571;47.512;19.054;2023-02-04T07:07:10;3.10;;;0.62;;
75890;SDS011;64571;47.512;19.054;2023-02-04T07:10:12;3.33;;;0.87;;
75890;SDS011;64571;47.512;19.054;2023-02-04T07:13:15;3.50;;;0.90;;
75890;SDS011;64571;47.512;19.054;2023-02-04T07:16:18;3.85;;;0.90;;
75890;SDS011;64571;47.512;19.054;2023-02-04T07:19:20;2.58;;;0.60;;
75890;SDS011;64571;47.512;19.054;2023-02-04T07:22:23;4.10;;;1.05;;
75890;SDS011;64571;47.512;19.054;2023-02-04T07:25:25;3.40;;;0.93;;
75890;SDS011;64571;47.512;19.054;2023-02-04T07:28:28;5.15;;;0.82;;
75890;SDS011;64571;47.512;19.054;2023-02-04T07:31:30;4.37;;;1.20;;
75890;SDS011;64571;47.512;19.054;2023-02-04T07:34:33;5.25;;;1.40;;
75890;SDS011;64571;47.512;19.054;2023-02-04T07:37:36;5.65;;;1.42;;
75890;SDS011;64571;47.512;19.054;2023-02-04T07:40:38;5.97;;;1.63;;
75890;SDS011;64571;47.512;19.054;2023-02-04T07:43:41;4.50;;;1.33;;
75890;SDS011;64571;47.512;19.054;2023-02-04T07:46:44;4.35;;;1.62;;
75890;SDS011;64571;47.512;19.054;2023-02-04T07:49:46;5.72;;;1.87;;
75890;SDS011;64571;47.512;19.054;2023-02-04T07:52:49;6.05;;;2.40;;
75890;SDS011;64571;47.512;19.054;2023-02-04T07:55:51;5.47;;;2.40;;
75890;SDS011;64571;47.512;19.054;2023-02-04T07:58:54;8.02;;;2.97;;
75890;SDS011;64571;47.512;19.054;2023-02-04T08:01:57;6.70;;;2.25;;
75890;SDS011;64571;47.512;19.054;2023-02-04T08:04:59;8.65;;;3.00;;
75890;SDS011;64571;47.512;19.054;2023-02-04T08:08:02;8.30;;;3.60;;
75890;SDS011;64571;47.512;19.054;2023-02-04T08:11:05;7.67;;;3.03;;
75890;SDS011;64571;47.512;19.054;2023-02-04T08:14:07;7.22;;;3.17;;
75890;SDS011;64571;47.512;19.054;2023-02-04T08:17:10;6.62;;;2.30;;
75890;SDS011;64571;47.512;19.054;2023-02-04T08:20:12;6.55;;;2.47;;
75890;SDS011;64571;47.512;19.054;2023-02-04T08:23:15;6.65;;;2.08;;
75890;SDS011;64571;47.512;19.054;2023-02-04T08:26:18;6.93;;;2.60;;
75890;SDS011;64571;47.512;19.054;2023-02-04T08:29:20;7.87;;;2.87;;
75890;SDS011;64571;47.512;19.054;2023-02-04T08:32:23;7.40;;;2.72;;
75890;SDS011;64571;47.512;19.054;2023-02-04T08:35:25;6.37;;;2.65;;
75890;SDS011;64571;47.512;19.054;2023-02-04T08:38:31;7.05;;;2.95;;
75890;SDS011;64571;47.512;19.054;2023-02-04T08:41:33;8.83;;;2.87;;
75890;SDS011;64571;47.512;19.054;2023-02-04T08:44:36;6.93;;;2.12;;
75890;SDS011;64571;47.512;19.054;2023-02-04T08:47:38;7.65;;;2.80;;
75890;SDS011;64571;47.512;19.054;2023-02-04T08:50:41;6.75;;;2.53;;
75890;SDS011;64571;47.512;19.054;2023-02-04T08:53:44;5.28;;;2.37;;
75890;SDS011;64571;47.512;19.054;2023-02-04T08:56:46;6.10;;;2.23;;
75890;SDS011;64571;47.512;19.054;2023-02-04T08:59:49;6.30;;;2.87;;
75890;SDS011;64571;47.512;19.054;2023-02-04T09:02:51;5.93;;;2.22;;
75890;SDS011;64571;47.512;19.054;2023-02-04T09:05:54;5.57;;;1.90;;
75890;SDS011;64571;47.512;19.054;2023-02-04T09:08:56;5.68;;;2.30;;
75890;SDS011;64571;47.512;19.054;2023-02-04T09:11:59;5.30;;;1.50;;
75890;SDS011;64571;47.512;19.054;2023-02-04T09:15:02;5.20;;;1.90;;
75890;SDS011;64571;47.512;19.054;2023-02-04T09:18:06;4.72;;;1.80;;
75890;SDS011;64571;47.512;19.054;2023-02-04T09:21:17;5.60;;;2.08;;
75890;SDS011;64571;47.512;19.054;2023-02-04T09:24:22;4.87;;;1.60;;
75890;SDS011;64571;47.512;19.054;2023-02-04T09:27:25;4.77;;;1.57;;
75890;SDS011;64571;47.512;19.054;2023-02-04T09:30:27;6.28;;;2.22;;
75890;SDS011;64571;47.512;19.054;2023-02-04T09:33:30;4.75;;;1.52;;
75890;SDS011;64571;47.512;19.054;2023-02-04T09:36:32;4.15;;;1.50;;
75890;SDS011;64571;47.512;19.054;2023-02-04T09:39:38;4.65;;;1.62;;
75890;SDS011;64571;47.512;19.054;2023-02-04T09:42:41;4.70;;;1.27;;
75890;SDS011;64571;47.512;19.054;2023-02-04T09:45:46;3.87;;;1.00;;
75890;SDS011;64571;47.512;19.054;2023-02-04T09:48:50;5.87;;;1.50;;
75890;SDS011;64571;47.512;19.054;2023-02-04T09:51:53;5.30;;;1.62;;
75890;SDS011;64571;47.512;19.054;2023-02-04T09:54:56;4.05;;;1.30;;
75890;SDS011;64571;47.512;19.054;2023-02-04T09:57:59;4.70;;;1.30;;
75890;SDS011;64571;47.512;19.054;2023-02-04T10:01:15;5.30;;;1.40;;
75890;SDS011;64571;47.512;19.054;2023-02-04T10:04:20;5.18;;;1.48;;
75890;SDS011;64571;47.512;19.054;2023-02-04T10:07:23;3.90;;;1.10;;
75890;SDS011;64571;47.512;19.054;2023-02-04T10:10:28;4.47;;;1.08;;
75890;SDS011;64571;47.512;19.054;2023-02-04T10:13:33;4.10;;;1.20;;
75890;SDS011;64571;47.512;19.054;2023-02-04T10:16:39;4.12;;;1.17;;
75890;SDS011;64571;47.512;19.054;2023-02-04T10:19:44;5.35;;;1.20;;
75890;SDS011;64571;47.512;19.054;2023-02-04T10:22:50;3.47;;;1.00;;
75890;SDS011;64571;47.512;19.054;2023-02-04T10:25:54;3.75;;;1.02;;
75890;SDS011;64571;47.512;19.054;2023-02-04T10:29:01;4.97;;;1.03;;
75890;SDS011;64571;47.512;19.054;2023-02-04T10:32:05;4.78;;;1.20;;
75890;SDS011;64571;47.512;19.054;2023-02-04T10:35:26;4.82;;;1.65;;
75890;SDS011;64571;47.512;19.054;2023-02-04T10:38:29;5.00;;;1.15;;
75890;SDS011;64571;47.512;19.054;2023-02-04T10:41:32;3.92;;;0.80;;
75890;SDS011;64571;47.512;19.054;2023-02-04T10:44:35;3.57;;;0.90;;
75890;SDS011;64571;47.512;19.054;2023-02-04T10:47:38;4.40;;;1.10;;
75890;SDS011;64571;47.512;19.054;2023-02-04T10:50:52;5.18;;;1.10;;
75890;SDS011;64571;47.512;19.054;2023-02-04T10:53:58;4.07;;;0.88;;
75890;SDS011;64571;47.512;19.054;2023-02-04T10:57:23;4.22;;;1.10;;
75890;SDS011;64571;47.512;19.054;2023-02-04T11:00:29;4.90;;;1.20;;
75890;SDS011;64571;47.512;19.054;2023-02-04T11:03:33;3.65;;;1.10;;
75890;SDS011;64571;47.512;19.054;2023-02-04T11:06:35;3.78;;;0.85;;
75890;SDS011;64571;47.512;19.054;2023-02-04T11:09:41;8.77;;;0.93;;
75890;SDS011;64571;47.512;19.054;2023-02-04T11:12:46;2.80;;;0.60;;
75890;SDS011;64571;47.512;19.054;2023-02-04T11:16:07;3.23;;;0.97;;
75890;SDS011;64571;47.512;19.054;2023-02-04T11:19:13;3.92;;;1.10;;
75890;SDS011;64571;47.512;19.054;2023-02-04T11:22:21;3.90;;;1.10;;
75890;SDS011;64571;47.512;19.054;2023-02-04T11:25:29;4.82;;;1.10;;
75890;SDS011;64571;47.512;19.054;2023-02-04T11:34:50;3.30;;;0.80;;
75890;SDS011;64571;47.512;19.054;2023-02-04T11:37:54;4.25;;;1.15;;
75890;SDS011;64571;47.512;19.054;2023-02-04T11:40:58;4.18;;;0.98;;
75890;SDS011;64571;47.512;19.054;2023-02-04T11:44:01;3.87;;;0.90;;
75890;SDS011;64571;47.512;19.054;2023-02-04T11:47:06;3.97;;;0.70;;
75890;SDS011;64571;47.512;19.054;2023-02-04T11:50:16;4.40;;;0.93;;
75890;SDS011;64571;47.512;19.054;2023-02-04T11:53:19;5.07;;;1.17;;
75890;SDS011;64571;47.512;19.054;2023-02-04T11:56:27;4.87;;;1.00;;
75890;SDS011;64571;47.512;19.054;2023-02-04T11:59:31;3.75;;;0.80;;
75890;SDS011;64571;47.512;19.054;2023-02-04T12:02:44;4.70;;;1.00;;
75890;SDS011;64571;47.512;19.054;2023-02-04T12:05:49;3.90;;;0.80;;
75890;SDS011;64571;47.512;19.054;2023-02-04T12:09:03;3.42;;;0.60;;
75890;SDS011;64571;47.512;19.054;2023-02-04T12:12:07;3.03;;;0.70;;
75890;SDS011;64571;47.512;19.054;2023-02-04T12:15:15;6.18;;;1.05;;
75890;SDS011;64571;47.512;19.054;2023-02-04T12:18:26;3.27;;;0.80;;
75890;SDS011;64571;47.512;19.054;2023-02-04T12:21:28;3.58;;;0.90;;
75890;SDS011;64571;47.512;19.054;2023-02-04T12:24:31;3.05;;;0.75;;
75890;SDS011;64571;47.512;19.054;2023-02-04T12:27:33;4.82;;;1.05;;
75890;SDS011;64571;47.512;19.054;2023-02-04T12:30:36;8.57;;;1.70;;
75890;SDS011;64571;47.512;19.054;2023-02-04T12:33:39;4.60;;;1.13;;
75890;SDS011;64571;47.512;19.054;2023-02-04T12:36:42;8.10;;;1.23;;
75890;SDS011;64571;47.512;19.054;2023-02-04T12:39:44;4.15;;;1.08;;
75890;SDS011;64571;47.512;19.054;2023-02-04T12:42:47;5.82;;;1.10;;
75890;SDS011;64571;47.512;19.054;2023-02-04T12:45:49;4.20;;;1.50;;
75890;SDS011;64571;47.512;19.054;2023-02-04T12:48:52;5.73;;;1.67;;
75890;SDS011;64571;47.512;19.054;2023-02-04T12:51:55;4.15;;;1.20;;
75890;SDS011;64571;47.512;19.054;2023-02-04T12:55:00;4.28;;;1.17;;
75890;SDS011;64571;47.512;19.054;2023-02-04T12:58:02;3.95;;;1.17;;
75890;SDS011;64571;47.512;19.054;2023-02-04T13:01:05;4.82;;;1.48;;
75890;SDS011;64571;47.512;19.054;2023-02-04T13:04:08;4.93;;;1.53;;
75890;SDS011;64571;47.512;19.054;2023-02-04T13:07:11;4.22;;;1.25;;
75890;SDS011;64571;47.512;19.054;2023-02-04T13:10:13;4.35;;;1.40;;
75890;SDS011;64571;47.512;19.054;2023-02-04T13:13:17;4.85;;;1.02;;
75890;SDS011;64571;47.512;19.054;2023-02-04T13:16:20;4.03;;;1.05;;
75890;SDS011;64571;47.512;19.054;2023-02-04T13:19:25;4.43;;;1.50;;
75890;SDS011;64571;47.512;19.054;2023-02-04T13:22:27;4.47;;;1.60;;
75890;SDS011;64571;47.512;19.054;2023-02-04T13:25:30;4.20;;;1.20;;
75890;SDS011;64571;47.512;19.054;2023-02-04T13:28:33;4.65;;;1.45;;
75890;SDS011;64571;47.512;19.054;2023-02-04T13:31:36;5.15;;;1.92;;
75890;SDS011;64571;47.512;19.054;2023-02-04T13:34:39;5.60;;;1.70;;
75890;SDS011;64571;47.512;19.054;2023-02-04T13:37:42;5.18;;;1.73;;
75890;SDS011;64571;47.512;19.054;2023-02-04T13:40:44;6.20;;;1.50;;
75890;SDS011;64571;47.512;19.054;2023-02-04T13:43:47;4.57;;;1.15;;
75890;SDS011;64571;47.512;19.054;2023-02-04T13:46:49;4.75;;;1.73;;
75890;SDS011;64571;47.512;19.054;2023-02-04T13:49:53;6.47;;;1.40;;
75890;SDS011;64571;47.512;19.054;2023-02-04T13:52:55;6.50;;;2.05;;
75890;SDS011;64571;47.512;19.054;2023-02-04T13:55:58;6.15;;;1.90;;
75890;SDS011;64571;47.512;19.054;2023-02-04T13:59:00;5.18;;;1.37;;
75890;SDS011;64571;47.512;19.054;2023-02-04T14:02:03;4.05;;;0.95;;
75890;SDS011;64571;47.512;19.054;2023-02-04T14:05:06;5.87;;;1.50;;
75890;SDS011;64571;47.512;19.054;2023-02-04T14:08:08;4.97;;;1.52;;
75890;SDS011;64571;47.512;19.054;2023-02-04T14:11:11;5.20;;;1.42;;
75890;SDS011;64571;47.512;19.054;2023-02-04T14:14:13;6.00;;;1.87;;
75890;SDS011;64571;47.512;19.054;2023-02-04T14:17:16;6.30;;;1.87;;
75890;SDS011;64571;47.512;19.054;2023-02-04T14:20:18;5.37;;;1.50;;
75890;SDS011;64571;47.512;19.054;2023-02-04T14:23:21;6.00;;;1.70;;
75890;SDS011;64571;47.512;19.054;2023-02-04T14:26:24;5.78;;;1.52;;
75890;SDS011;64571;47.512;19.054;2023-02-04T14:29:27;6.65;;;1.85;;
75890;SDS011;64571;47.512;19.054;2023-02-04T14:32:30;4.57;;;1.80;;
75890;SDS011;64571;47.512;19.054;2023-02-04T14:35:33;6.47;;;1.87;;
75890;SDS011;64571;47.512;19.054;2023-02-04T14:38:35;6.75;;;2.20;;
75890;SDS011;64571;47.512;19.054;2023-02-04T14:41:40;6.07;;;1.90;;
75890;SDS011;64571;47.512;19.054;2023-02-04T14:44:42;5.25;;;1.65;;
75890;SDS011;64571;47.512;19.054;2023-02-04T14:47:45;5.25;;;2.00;;
75890;SDS011;64571;47.512;19.054;2023-02-04T14:50:50;5.73;;;2.20;;
75890;SDS011;64571;47.512;19.054;2023-02-04T14:53:53;5.60;;;1.67;;
75890;SDS011;64571;47.512;19.054;2023-02-04T14:56:55;7.37;;;2.00;;
75890;SDS011;64571;47.512;19.054;2023-02-04T14:59:58;6.62;;;2.12;;
75890;SDS011;64571;47.512;19.054;2023-02-04T15:03:00;7.03;;;2.08;;
75890;SDS011;64571;47.512;19.054;2023-02-04T15:06:03;5.90;;;2.30;;
75890;SDS011;64571;47.512;19.054;2023-02-04T15:09:05;6.57;;;2.08;;
75890;SDS011;64571;47.512;19.054;2023-02-04T15:12:08;8.13;;;1.85;;
75890;SDS011;64571;47.512;19.054;2023-02-04T15:15:11;5.65;;;1.85;;
75890;SDS011;64571;47.512;19.054;2023-02-04T15:18:14;7.03;;;2.13;;
75890;SDS011;64571;47.512;19.054;2023-02-04T15:21:16;6.93;;;2.03;;
75890;SDS011;64571;47.512;19.054;2023-02-04T15:24:19;5.43;;;2.00;;
75890;SDS011;64571;47.512;19.054;2023-02-04T15:27:23;4.95;;;1.90;;
75890;SDS011;64571;47.512;19.054;2023-02-04T15:30:27;5.15;;;1.95;;
75890;SDS011;64571;47.512;19.054;2023-02-04T15:33:29;10.20;;;1.60;;
75890;SDS011;64571;47.512;19.054;2023-02-04T15:36:32;6.90;;;2.20;;
75890;SDS011;64571;47.512;19.054;2023-02-04T15:39:35;4.80;;;1.62;;
75890;SDS011;64571;47.512;19.054;2023-02-04T15:42:38;7.90;;;2.17;;
75890;SDS011;64571;47.512;19.054;2023-02-04T15:45:41;7.43;;;2.03;;
75890;SDS011;64571;47.512;19.054;2023-02-04T15:48:45;5.23;;;1.70;;
75890;SDS011;64571;47.512;19.054;2023-02-04T15:51:47;5.45;;;1.60;;
75890;SDS011;64571;47.512;19.054;2023-02-04T15:54:50;5.07;;;1.65;;
75890;SDS011;64571;47.512;19.054;2023-02-04T15:57:53;6.87;;;1.77;;
75890;SDS011;64571;47.512;19.054;2023-02-04T16:00:55;4.75;;;1.50;;
75890;SDS011;64571;47.512;19.054;2023-02-04T16:03:58;5.37;;;1.63;;
75890;SDS011;64571;47.512;19.054;2023-02-04T16:07:01;6.37;;;1.70;;
75890;SDS011;64571;47.512;19.054;2023-02-04T16:10:09;3.87;;;1.30;;
75890;SDS011;64571;47.512;19.054;2023-02-04T16:13:11;5.10;;;1.52;;
75890;SDS011;64571;47.512;19.054;2023-02-04T16:16:14;5.70;;;1.50;;
75890;SDS011;64571;47.512;19.054;2023-02-04T16:19:17;5.70;;;1.80;;
75890;SDS011;64571;47.512;19.054;2023-02-04T16:22:19;4.95;;;1.60;;
75890;SDS011;64571;47.512;19.054;2023-02-04T16:25:22;5.10;;;1.45;;
75890;SDS011;64571;47.512;19.054;2023-02-04T16:28:25;5.60;;;1.87;;
75890;SDS011;64571;47.512;19.054;2023-02-04T16:31:28;5.22;;;1.80;;
75890;SDS011;64571;47.512;19.054;2023-02-04T16:34:31;6.90;;;1.80;;
75890;SDS011;64571;47.512;19.054;2023-02-04T16:37:33;5.43;;;1.70;;
75890;SDS011;64571;47.512;19.054;2023-02-04T16:40:36;12.30;;;1.77;;
75890;SDS011;64571;47.512;19.054;2023-02-04T16:43:39;6.43;;;1.67;;
75890;SDS011;64571;47.512;19.054;2023-02-04T16:46:41;4.78;;;1.65;;
75890;SDS011;64571;47.512;19.054;2023-02-04T16:49:44;5.33;;;1.40;;
75890;SDS011;64571;47.512;19.054;2023-02-04T16:52:47;7.45;;;1.80;;
75890;SDS011;64571;47.512;19.054;2023-02-04T16:55:49;9.23;;;2.33;;
75890;SDS011;64571;47.512;19.054;2023-02-04T16:58:52;5.32;;;1.37;;
75890;SDS011;64571;47.512;19.054;2023-02-04T17:01:54;6.72;;;1.37;;
75890;SDS011;64571;47.512;19.054;2023-02-04T17:04:59;5.70;;;1.73;;
75890;SDS011;64571;47.512;19.054;2023-02-04T17:08:01;5.00;;;1.20;;
75890;SDS011;64571;47.512;19.054;2023-02-04T17:11:04;6.20;;;1.50;;
75890;SDS011;64571;47.512;19.054;2023-02-04T17:14:24;5.45;;;1.40;;
75890;SDS011;64571;47.512;19.054;2023-02-04T17:17:27;5.72;;;1.75;;
75890;SDS011;64571;47.512;19.054;2023-02-04T17:20:29;7.43;;;1.77;;
75890;SDS011;64571;47.512;19.054;2023-02-04T17:23:32;10.32;;;1.75;;
75890;SDS011;64571;47.512;19.054;2023-02-04T17:26:37;7.95;;;1.65;;
75890;SDS011;64571;47.512;19.054;2023-02-04T17:29:40;4.97;;;1.25;;
75890;SDS011;64571;47.512;19.054;2023-02-04T17:32:43;6.37;;;2.20;;
75890;SDS011;64571;47.512;19.054;2023-02-04T17:35:46;5.33;;;1.20;;
75890;SDS011;64571;47.512;19.054;2023-02-04T17:38:49;4.32;;;1.12;;
75890;SDS011;64571;47.512;19.054;2023-02-04T17:41:52;7.03;;;1.62;;
75890;SDS011;64571;47.512;19.054;2023-02-04T17:44:54;5.45;;;1.10;;
75890;SDS011;64571;47.512;19.054;2023-02-04T17:47:57;5.40;;;1.60;;
75890;SDS011;64571;47.512;19.054;2023-02-04T17:51:00;6.07;;;1.83;;
75890;SDS011;64571;47.512;19.054;2023-02-04T17:54:03;5.78;;;1.60;;
75890;SDS011;64571;47.512;19.054;2023-02-04T17:57:14;5.32;;;1.30;;
75890;SDS011;64571;47.512;19.054;2023-02-04T18:00:24;5.95;;;1.50;;
75890;SDS011;64571;47.512;19.054;2023-02-04T18:03:30;5.00;;;1.10;;
75890;SDS011;64571;47.512;19.054;2023-02-04T18:06:34;5.17;;;1.63;;
75890;SDS011;64571;47.512;19.054;2023-02-04T18:09:38;6.78;;;1.73;;
75890;SDS011;64571;47.512;19.054;2023-02-04T18:12:41;6.05;;;1.77;;
75890;SDS011;64571;47.512;19.054;2023-02-04T18:15:45;6.07;;;1.50;;